createdAt,value
2022-08-08T00:00:52.849Z,1.00
2022-08-08T00:04:16.581Z,0.90
2022-08-08T00:07:30.029Z,0.70
2022-08-08T00:10:55.576Z,0.80
2022-08-08T00:14:17.250Z,1.00
2022-08-08T00:18:02.320Z,1.00
2022-08-08T00:21:12.209Z,0.63
2022-08-08T00:24:30.078Z,0.70
2022-08-08T00:27:50.589Z,0.95
2022-08-08T00:31:00.509Z,1.50
2022-08-08T00:35:08.285Z,0.90
2022-08-08T00:38:44.508Z,0.98
2022-08-08T00:42:30.324Z,0.93
2022-08-08T00:46:16.090Z,1.08
2022-08-08T00:49:50.483Z,2.50
2022-08-08T00:53:29.388Z,1.40
2022-08-08T00:56:51.994Z,0.95
2022-08-08T01:00:18.262Z,0.85
2022-08-08T01:04:01.626Z,0.65
2022-08-08T01:07:34.842Z,0.85
2022-08-08T01:11:01.182Z,1.10
2022-08-08T01:14:54.795Z,0.88
2022-08-08T01:18:53.544Z,0.80
2022-08-08T01:22:40.824Z,0.75
2022-08-08T01:26:11.734Z,0.90
2022-08-08T01:29:59.666Z,1.02
2022-08-08T01:33:27.485Z,0.90
2022-08-08T01:36:40.544Z,1.38
2022-08-08T01:40:02.555Z,1.10
2022-08-08T01:43:34.712Z,1.25
2022-08-08T01:48:14.619Z,0.90
2022-08-08T01:50:54.577Z,1.27
2022-08-08T01:54:29.664Z,0.90
2022-08-08T01:58:04.561Z,1.00
2022-08-08T02:02:00.702Z,0.70
2022-08-08T02:05:14.739Z,0.70
2022-08-08T02:08:19.305Z,0.73
2022-08-08T02:12:00.062Z,0.85
2022-08-08T02:15:25.652Z,0.50
2022-08-08T02:18:58.721Z,0.60
2022-08-08T02:22:31.620Z,0.70
2022-08-08T02:26:00.994Z,0.50
2022-08-08T02:29:25.309Z,0.77
2022-08-08T02:32:36.791Z,0.70
2022-08-08T02:36:03.704Z,0.50
2022-08-08T02:39:42.589Z,0.80
2022-08-08T02:44:36.932Z,1.88
2022-08-08T02:47:32.390Z,1.40
2022-08-08T02:50:56.134Z,1.00
2022-08-08T02:55:00.109Z,0.90
2022-08-08T02:58:29.075Z,1.00
2022-08-08T03:01:59.771Z,1.00
2022-08-08T03:05:26.212Z,1.38
2022-08-08T03:08:57.675Z,0.90
2022-08-08T03:12:36.448Z,0.70
2022-08-08T03:16:06.002Z,0.90
2022-08-08T03:19:27.890Z,0.80
2022-08-08T03:22:37.555Z,1.23
2022-08-08T03:25:51.049Z,0.98
2022-08-08T03:29:03.291Z,0.75
2022-08-08T03:32:29.021Z,0.70
2022-08-08T03:35:40.067Z,0.90
2022-08-08T03:39:07.381Z,0.90
2022-08-08T03:42:30.063Z,0.90
2022-08-08T03:46:05.821Z,0.95
2022-08-08T03:49:30.908Z,1.33
2022-08-08T03:52:28.202Z,1.20
2022-08-08T03:55:57.738Z,1.20
2022-08-08T03:58:57.068Z,1.52
2022-08-08T04:02:15.888Z,1.45
2022-08-08T04:05:35.070Z,2.80
2022-08-08T04:08:47.436Z,1.90
2022-08-08T04:11:58.765Z,1.27
2022-08-08T04:15:22.237Z,1.50
2022-08-08T04:18:28.039Z,1.10
2022-08-08T04:21:38.030Z,1.43
2022-08-08T04:24:50.407Z,1.30
2022-08-08T04:28:10.574Z,1.20
2022-08-08T04:31:30.728Z,1.20
2022-08-08T04:34:58.406Z,1.80
2022-08-08T04:38:09.550Z,1.40
2022-08-08T04:41:17.916Z,1.67
2022-08-08T04:44:26.909Z,1.70
2022-08-08T04:47:31.790Z,1.52
2022-08-08T04:50:44.699Z,1.52
2022-08-08T04:54:39.650Z,1.95
2022-08-08T04:57:17.332Z,1.90
2022-08-08T05:00:22.830Z,1.60
2022-08-08T05:04:09.842Z,1.83
2022-08-08T05:06:53.197Z,1.55
2022-08-08T05:09:58.656Z,1.63
2022-08-08T05:13:04.660Z,1.95
2022-08-08T05:16:51.210Z,2.00
2022-08-08T05:20:09.608Z,1.60
2022-08-08T05:23:15.379Z,2.00
2022-08-08T05:26:23.405Z,2.50
2022-08-08T05:29:35.827Z,2.20
2022-08-08T05:32:43.052Z,2.00
2022-08-08T05:35:54.217Z,2.33
2022-08-08T05:39:00.264Z,1.75
2022-08-08T05:42:07.345Z,2.38
2022-08-08T05:45:25.331Z,2.03
2022-08-08T05:48:52.398Z,2.20
2022-08-08T05:52:04.318Z,1.55
2022-08-08T05:55:15.085Z,1.67
2022-08-08T05:58:27.532Z,1.75
2022-08-08T06:01:55.694Z,1.65
2022-08-08T06:05:06.942Z,2.20
2022-08-08T06:08:37.417Z,2.38
2022-08-08T06:11:46.735Z,2.40
2022-08-08T06:14:51.048Z,2.25
2022-08-08T06:18:20.611Z,2.80
2022-08-08T06:21:48.443Z,2.55
2022-08-08T06:24:56.535Z,2.30
2022-08-08T06:32:09.928Z,2.92
2022-08-08T06:36:07.857Z,2.90
2022-08-08T06:38:46.925Z,2.80
2022-08-08T06:49:55.461Z,3.00
2022-08-08T06:53:14.161Z,2.90
2022-08-08T06:56:35.841Z,2.55
2022-08-08T07:00:03.746Z,2.90
2022-08-08T07:22:40.919Z,2.60
2022-08-08T08:03:23.897Z,2.83
2022-08-08T08:06:38.763Z,2.60
2022-08-08T08:09:47.183Z,2.63
2022-08-08T08:13:02.097Z,2.40
2022-08-08T08:16:08.930Z,3.20
2022-08-08T08:22:38.101Z,3.03
2022-08-08T08:29:02.843Z,2.92
2022-08-08T08:32:31.702Z,2.60
2022-08-08T08:39:17.478Z,2.40
2022-08-08T08:42:36.174Z,2.45
2022-08-08T08:49:53.448Z,2.40
2022-08-08T08:53:04.693Z,2.35
2022-08-08T09:07:12.607Z,2.20
2022-08-08T09:10:28.173Z,2.17
2022-08-08T09:16:59.363Z,2.08
2022-08-08T09:22:01.479Z,3.13
2022-08-08T09:23:33.636Z,2.53
2022-08-08T09:26:56.395Z,2.40
2022-08-08T09:30:17.788Z,3.10
2022-08-08T09:34:06.252Z,2.80
2022-08-08T09:44:06.294Z,2.90
2022-08-08T09:50:44.054Z,2.75
2022-08-08T09:54:08.578Z,2.80
2022-08-08T09:57:37.865Z,2.88
2022-08-08T10:00:57.464Z,2.47
2022-08-08T10:04:35.573Z,2.47
2022-08-08T10:08:17.595Z,2.60
2022-08-08T10:12:27.446Z,2.80
2022-08-08T10:15:03.046Z,2.80
2022-08-08T10:18:39.828Z,2.25
2022-08-08T10:32:07.461Z,2.17
2022-08-08T10:38:42.833Z,2.13
2022-08-08T10:48:58.672Z,1.95
2022-08-08T10:52:07.288Z,1.80
2022-08-08T10:58:54.669Z,2.08
2022-08-08T11:02:07.190Z,1.98
2022-08-08T11:12:04.906Z,2.00
2022-08-08T11:15:30.641Z,1.98
2022-08-08T11:21:57.083Z,1.73
2022-08-08T11:25:14.434Z,1.50
2022-08-08T11:28:29.425Z,2.10
2022-08-08T11:35:27.091Z,2.05
2022-08-08T11:38:35.293Z,1.75
2022-08-08T11:41:44.721Z,1.70
2022-08-08T11:44:50.508Z,1.80
2022-08-08T11:48:04.671Z,1.70
2022-08-08T11:51:38.302Z,1.92
2022-08-08T11:57:51.705Z,2.33
2022-08-08T12:01:00.678Z,2.30
2022-08-08T12:04:17.634Z,2.60
2022-08-08T12:07:26.542Z,2.58
2022-08-08T12:10:34.517Z,2.05
2022-08-08T12:14:03.540Z,2.20
2022-08-08T12:17:04.617Z,2.17
2022-08-08T12:20:14.783Z,2.30
2022-08-08T12:23:44.006Z,2.38
2022-08-08T12:26:59.644Z,2.42
2022-08-08T12:30:16.000Z,2.95
2022-08-08T12:33:37.497Z,4.32
2022-08-08T12:36:52.419Z,3.47
2022-08-08T12:48:37.161Z,3.22
2022-08-08T12:51:53.677Z,3.92
2022-08-08T12:55:14.346Z,3.30
2022-08-08T12:58:59.469Z,3.28
2022-08-08T13:02:07.118Z,4.20
2022-08-08T13:05:25.663Z,3.30
2022-08-08T13:08:53.184Z,3.50
2022-08-08T13:12:27.003Z,3.97
2022-08-08T13:15:31.334Z,3.67
2022-08-08T13:18:58.461Z,4.32
2022-08-08T13:22:06.928Z,4.40
2022-08-08T13:25:19.748Z,4.03
2022-08-08T13:28:33.033Z,4.05
2022-08-08T13:31:36.990Z,4.55
2022-08-08T13:34:48.055Z,5.00
2022-08-08T13:38:08.440Z,4.00
2022-08-08T13:41:17.342Z,4.45
2022-08-08T13:44:22.303Z,4.07
2022-08-08T13:47:38.284Z,4.85
2022-08-08T13:50:51.007Z,4.28
2022-08-08T13:54:01.085Z,4.30
2022-08-08T13:57:12.590Z,3.65
2022-08-08T14:03:54.170Z,3.97
2022-08-08T14:07:08.000Z,3.75
2022-08-08T14:10:17.421Z,4.85
2022-08-08T14:13:33.551Z,4.70
2022-08-08T14:16:48.920Z,3.50
2022-08-08T14:20:06.858Z,3.00
2022-08-08T14:23:21.311Z,3.22
2022-08-08T14:26:48.471Z,2.92
2022-08-08T14:30:19.238Z,2.47
2022-08-08T14:33:36.346Z,2.78
2022-08-08T14:40:05.747Z,2.88
2022-08-08T14:43:31.096Z,2.53
2022-08-08T14:46:38.374Z,2.67
2022-08-08T14:50:06.292Z,3.15
2022-08-08T14:53:08.257Z,3.03
2022-08-08T14:56:12.220Z,3.00
2022-08-08T15:02:33.860Z,3.03
2022-08-08T15:05:43.075Z,2.60
2022-08-08T15:08:59.187Z,3.40
2022-08-08T15:16:03.306Z,3.00
2022-08-08T15:18:52.245Z,2.70
2022-08-08T15:21:57.806Z,2.88
2022-08-08T15:28:32.907Z,2.83
2022-08-08T15:34:56.674Z,3.55
2022-08-08T15:38:02.791Z,3.20
2022-08-08T15:41:09.672Z,3.53
2022-08-08T15:44:15.027Z,3.85
2022-08-08T15:47:24.461Z,3.45
2022-08-08T15:50:54.387Z,3.67
2022-08-08T15:53:59.943Z,3.70
2022-08-08T15:57:07.781Z,3.63
2022-08-08T16:00:27.210Z,3.60
2022-08-08T16:03:37.172Z,3.40
2022-08-08T16:06:51.018Z,3.55
2022-08-08T16:13:20.818Z,3.20
2022-08-08T16:13:34.731Z,3.47
2022-08-08T16:16:50.473Z,3.50
2022-08-08T16:19:59.588Z,3.40
2022-08-08T16:23:11.271Z,3.47
2022-08-08T16:26:22.916Z,3.67
2022-08-08T16:30:13.176Z,3.78
2022-08-08T16:33:05.850Z,3.80
2022-08-08T16:36:27.956Z,3.40
2022-08-08T16:40:02.645Z,3.92
2022-08-08T16:43:05.707Z,3.85
2022-08-08T16:46:43.089Z,3.73
2022-08-08T16:49:38.649Z,3.40
2022-08-08T16:55:05.809Z,4.13
2022-08-08T16:56:19.193Z,3.92
2022-08-08T16:59:30.459Z,3.55
2022-08-08T17:02:54.470Z,3.30
2022-08-08T17:06:01.154Z,3.65
2022-08-08T17:09:07.723Z,3.78
2022-08-08T17:12:28.535Z,3.55
2022-08-08T17:15:47.597Z,3.65
2022-08-08T17:19:00.707Z,3.83
2022-08-08T17:22:08.630Z,3.63
2022-08-08T17:25:14.791Z,3.53
2022-08-08T17:28:34.081Z,3.53
2022-08-08T17:31:45.892Z,3.58
2022-08-08T17:35:56.204Z,3.92
2022-08-08T17:38:22.785Z,3.45
2022-08-08T17:41:38.915Z,3.60
2022-08-08T17:44:52.435Z,3.67
2022-08-08T17:47:58.973Z,4.25
2022-08-08T17:51:05.845Z,3.92
2022-08-08T17:54:21.971Z,3.70
2022-08-08T17:57:35.461Z,4.07
2022-08-08T18:00:42.385Z,4.30
2022-08-08T18:03:53.863Z,4.10
2022-08-08T18:07:01.864Z,3.70
2022-08-08T18:10:10.180Z,4.22
2022-08-08T18:13:18.026Z,4.35
2022-08-08T18:16:23.847Z,4.10
2022-08-08T18:19:34.724Z,4.10
2022-08-08T18:22:52.153Z,4.10
2022-08-08T18:26:01.466Z,4.25
2022-08-08T18:29:15.354Z,3.97
2022-08-08T18:32:23.442Z,4.35
2022-08-08T18:35:34.294Z,3.97
2022-08-08T18:38:49.117Z,4.13
2022-08-08T18:41:57.610Z,4.18
2022-08-08T18:45:09.231Z,4.93
2022-08-08T18:48:30.824Z,4.85
2022-08-08T18:51:52.590Z,4.15
2022-08-08T18:55:10.755Z,4.43
2022-08-08T18:58:17.285Z,4.20
2022-08-08T19:02:25.038Z,4.60
2022-08-08T19:04:53.778Z,4.15
2022-08-08T19:08:00.337Z,4.43
2022-08-08T19:11:07.024Z,4.25
2022-08-08T19:14:21.013Z,5.60
2022-08-08T19:17:29.463Z,5.60
2022-08-08T19:20:54.492Z,4.55
2022-08-08T19:24:00.668Z,5.20
2022-08-08T19:27:07.743Z,4.88
2022-08-08T19:30:24.048Z,4.67
2022-08-08T19:36:59.833Z,4.78
2022-08-08T19:40:06.642Z,4.20
2022-08-08T19:43:13.176Z,4.70
2022-08-08T19:46:22.547Z,4.97
2022-08-08T19:49:30.020Z,4.90
2022-08-08T19:52:54.730Z,4.72
2022-08-08T19:56:07.229Z,4.82
2022-08-08T19:59:18.963Z,4.70
2022-08-08T20:02:29.237Z,4.75
2022-08-08T20:06:12.668Z,5.03
2022-08-08T20:09:04.485Z,4.90
2022-08-08T20:12:13.947Z,4.65
2022-08-08T20:15:21.819Z,4.75
2022-08-08T20:18:29.653Z,4.55
2022-08-08T20:21:54.111Z,4.80
2022-08-08T20:25:00.253Z,4.88
2022-08-08T20:28:16.058Z,4.97
2022-08-08T20:31:25.685Z,4.40
2022-08-08T20:34:53.586Z,4.30
2022-08-08T20:37:59.517Z,4.60
2022-08-08T20:41:17.138Z,4.72
2022-08-08T20:44:25.070Z,4.90
2022-08-08T20:47:36.393Z,4.35
2022-08-08T20:50:43.915Z,4.70
2022-08-08T20:54:00.960Z,5.32
2022-08-08T20:57:17.255Z,4.70
2022-08-08T21:00:25.984Z,4.43
2022-08-08T21:03:31.435Z,4.45
2022-08-08T21:06:57.755Z,4.57
2022-08-08T21:10:12.231Z,5.30
2022-08-08T21:13:19.118Z,4.57
2022-08-08T21:16:29.158Z,4.85
2022-08-08T21:19:45.571Z,4.88
2022-08-08T21:22:53.075Z,4.75
2022-08-08T21:25:59.291Z,4.55
2022-08-08T21:29:04.891Z,4.93
2022-08-08T21:36:14.242Z,3.95
2022-08-08T21:38:52.164Z,4.68
2022-08-08T21:41:59.121Z,4.68
2022-08-08T21:45:20.923Z,5.30
2022-08-08T21:48:41.112Z,5.18
2022-08-08T21:54:17.389Z,4.72
2022-08-08T21:55:24.249Z,5.40
2022-08-08T21:58:42.714Z,4.28
2022-08-08T22:01:52.481Z,4.72
2022-08-08T22:05:02.887Z,5.05
2022-08-08T22:08:24.036Z,5.68
2022-08-08T22:12:02.367Z,4.55
2022-08-08T22:14:57.929Z,5.00
2022-08-08T22:18:02.897Z,4.30
2022-08-08T22:21:18.059Z,4.68
2022-08-08T22:24:28.294Z,4.70
2022-08-08T22:28:00.588Z,4.55
2022-08-08T22:30:58.558Z,5.13
2022-08-08T22:34:12.798Z,4.85
2022-08-08T22:40:42.884Z,4.40
2022-08-08T22:44:05.490Z,4.78
2022-08-08T22:47:17.706Z,4.57
2022-08-08T22:50:27.051Z,4.20
2022-08-08T22:54:30.506Z,4.15
2022-08-08T22:56:58.121Z,4.07
2022-08-08T23:00:02.532Z,4.70
2022-08-08T23:03:10.045Z,4.47
2022-08-08T23:06:18.498Z,4.40
2022-08-08T23:09:30.589Z,4.60
2022-08-08T23:12:40.402Z,5.00
2022-08-08T23:16:39.241Z,4.53
2022-08-08T23:19:17.401Z,4.55
2022-08-08T23:22:22.416Z,4.55
2022-08-08T23:25:27.827Z,4.55
2022-08-08T23:31:49.775Z,4.00
2022-08-08T23:34:58.741Z,4.05
2022-08-08T23:38:07.097Z,4.53
2022-08-08T23:41:24.822Z,4.55
2022-08-08T23:49:02.372Z,4.07
2022-08-08T23:51:42.614Z,4.68
2022-08-08T23:55:07.477Z,4.35
2022-08-08T23:58:37.083Z,5.40
